createdAt,value
2019-02-02T00:01:15.736Z,7.17
2019-02-02T00:03:21.803Z,7.67
2019-02-02T00:06:17.631Z,6.57
2019-02-02T00:08:05.689Z,6.97
2019-02-02T00:10:14.239Z,7.80
2019-02-02T00:12:32.231Z,7.93
2019-02-02T00:14:45.552Z,7.37
2019-02-02T00:16:50.087Z,8.50
2019-02-02T00:18:55.109Z,6.73
2019-02-02T00:20:59.438Z,6.63
2019-02-02T00:23:23.451Z,6.80
2019-02-02T00:25:40.035Z,6.23
2019-02-02T00:27:46.218Z,6.70
2019-02-02T00:29:52.971Z,6.63
2019-02-02T00:31:58.424Z,6.37
2019-02-02T00:38:47.947Z,7.17
2019-02-02T00:40:39.509Z,7.50
2019-02-02T00:42:45.130Z,7.20
2019-02-02T00:45:09.481Z,7.40
2019-02-02T00:47:15.039Z,7.50
2019-02-02T00:49:31.372Z,6.47
2019-02-02T00:51:47.442Z,7.23
2019-02-02T00:53:51.790Z,6.83
2019-02-02T00:55:56.118Z,7.60
2019-02-02T00:58:00.835Z,7.33
2019-02-02T01:00:06.602Z,6.30
2019-02-02T01:04:36.378Z,6.80
2019-02-02T01:06:40.801Z,7.47
2019-02-02T01:08:45.517Z,6.27
2019-02-02T01:10:49.842Z,6.73
2019-02-02T01:12:54.352Z,6.27
2019-02-02T01:15:18.228Z,5.27
2019-02-02T01:17:41.612Z,7.10
2019-02-02T01:19:45.929Z,6.43
2019-02-02T01:21:50.231Z,6.67
2019-02-02T01:23:54.580Z,5.03
2019-02-02T01:25:59.345Z,6.57
2019-02-02T01:28:22.958Z,6.53
2019-02-02T01:30:27.579Z,5.60
2019-02-02T01:32:32.223Z,6.10
2019-02-02T01:34:36.547Z,6.13
2019-02-02T01:36:41.161Z,6.27
2019-02-02T01:38:45.459Z,5.47
2019-02-02T01:41:10.862Z,6.73
2019-02-02T01:43:15.207Z,5.87
2019-02-02T01:45:39.780Z,5.30
2019-02-02T01:47:44.111Z,5.80
2019-02-02T01:50:25.903Z,5.90
2019-02-02T01:52:29.684Z,6.90
2019-02-02T01:54:45.938Z,6.23
2019-02-02T01:56:50.680Z,6.00
2019-02-02T01:58:55.067Z,6.43
2019-02-02T02:00:59.425Z,6.77
2019-02-02T02:03:22.821Z,7.30
2019-02-02T02:05:27.558Z,6.87
2019-02-02T02:07:31.888Z,5.07
2019-02-02T02:09:55.268Z,5.67
2019-02-02T02:11:59.583Z,5.03
2019-02-02T02:14:04.099Z,6.07
2019-02-02T02:16:08.725Z,5.10
2019-02-02T02:18:13.110Z,5.97
2019-02-02T02:20:17.901Z,5.80
2019-02-02T02:22:22.256Z,6.57
2019-02-02T02:24:26.610Z,6.73
2019-02-02T02:26:51.299Z,5.70
2019-02-02T02:29:07.997Z,6.20
2019-02-02T02:31:20.880Z,4.90
2019-02-02T02:33:25.215Z,5.67
2019-02-02T02:35:29.573Z,7.00
2019-02-02T02:37:34.149Z,5.90
2019-02-02T02:39:38.771Z,6.23
2019-02-02T02:41:43.136Z,6.23
2019-02-02T02:43:47.814Z,6.93
2019-02-02T02:45:52.500Z,5.57
2019-02-02T02:48:15.896Z,6.87
2019-02-02T02:50:20.779Z,5.50
2019-02-02T02:52:25.109Z,5.70
2019-02-02T02:54:29.445Z,5.57
2019-02-02T02:56:52.846Z,7.30
2019-02-02T02:58:57.156Z,6.57
2019-02-02T03:01:01.550Z,6.60
2019-02-02T03:03:25.000Z,7.27
2019-02-02T03:08:13.782Z,5.60
2019-02-02T03:10:19.462Z,5.40
2019-02-02T03:12:23.835Z,5.23
2019-02-02T03:14:47.308Z,5.80
2019-02-02T03:16:51.659Z,5.33
2019-02-02T03:18:56.095Z,5.93
2019-02-02T03:21:00.518Z,6.57
2019-02-02T03:23:04.885Z,5.77
2019-02-02T03:25:12.125Z,6.40
2019-02-02T03:27:16.609Z,6.27
2019-02-02T03:29:20.927Z,6.27
2019-02-02T03:31:25.248Z,5.83
2019-02-02T03:33:48.707Z,5.80
2019-02-02T03:36:13.563Z,6.10
2019-02-02T03:38:17.996Z,6.03
2019-02-02T03:40:41.449Z,5.60
2019-02-02T03:42:45.916Z,5.07
2019-02-02T03:44:50.611Z,6.27
2019-02-02T03:46:55.309Z,6.20
2019-02-02T03:48:59.707Z,5.53
2019-02-02T03:51:03.983Z,6.27
2019-02-02T03:53:08.345Z,6.57
2019-02-02T03:55:13.516Z,6.27
2019-02-02T03:57:17.843Z,6.60
2019-02-02T03:59:25.167Z,5.83
2019-02-02T04:01:30.304Z,6.23
2019-02-02T04:03:35.550Z,6.00
2019-02-02T04:05:39.971Z,6.03
2019-02-02T04:08:03.379Z,6.40
2019-02-02T04:10:09.058Z,5.63
2019-02-02T04:12:13.454Z,7.50
2019-02-02T04:14:17.796Z,6.30
2019-02-02T04:16:24.499Z,5.83
2019-02-02T04:18:28.934Z,6.60
2019-02-02T04:20:33.425Z,6.80
2019-02-02T04:22:37.790Z,6.30
2019-02-02T04:24:42.107Z,5.83
2019-02-02T04:26:46.417Z,5.77
2019-02-02T04:28:50.809Z,5.93
2019-02-02T04:30:55.247Z,6.00
2019-02-02T04:32:59.890Z,6.77
2019-02-02T04:35:04.555Z,6.13
2019-02-02T04:37:08.934Z,6.67
2019-02-02T04:39:13.202Z,7.00
2019-02-02T04:41:17.773Z,5.70
2019-02-02T04:43:41.150Z,5.60
2019-02-02T04:45:45.485Z,6.10
2019-02-02T04:48:08.836Z,6.47
2019-02-02T04:50:25.073Z,6.33
2019-02-02T04:52:29.820Z,7.17
2019-02-02T04:54:53.296Z,7.27
2019-02-02T04:56:57.734Z,7.40
2019-02-02T04:59:02.070Z,6.80
2019-02-02T05:01:06.671Z,6.77
2019-02-02T05:03:11.449Z,7.03
2019-02-02T05:05:16.057Z,6.60
2019-02-02T05:07:20.471Z,9.27
2019-02-02T05:09:43.937Z,7.20
2019-02-02T05:11:48.255Z,7.20
2019-02-02T05:13:52.616Z,7.20
2019-02-02T05:15:57.022Z,5.93
2019-02-02T05:18:20.429Z,7.17
2019-02-02T05:20:27.313Z,6.23
2019-02-02T05:22:31.663Z,8.20
2019-02-02T05:24:36.072Z,6.37
2019-02-02T05:26:40.443Z,7.83
2019-02-02T05:28:44.763Z,8.10
2019-02-02T05:30:50.199Z,8.73
2019-02-02T05:33:13.642Z,7.33
2019-02-02T05:35:30.077Z,7.57
2019-02-02T05:37:45.830Z,7.90
2019-02-02T05:39:50.163Z,7.73
2019-02-02T05:41:54.616Z,6.80
2019-02-02T05:43:59.177Z,7.30
2019-02-02T05:46:08.621Z,7.23
2019-02-02T05:48:13.004Z,6.30
2019-02-02T05:50:19.272Z,7.63
2019-02-02T05:52:23.703Z,6.20
2019-02-02T05:54:47.084Z,7.30
2019-02-02T05:56:51.391Z,8.03
2019-02-02T06:03:31.064Z,5.90
2019-02-02T06:05:35.505Z,6.60
2019-02-02T06:07:39.830Z,5.87
2019-02-02T06:09:44.288Z,7.27
2019-02-02T06:11:48.697Z,6.17
2019-02-02T06:13:53.030Z,5.60
2019-02-02T06:16:16.458Z,5.60
2019-02-02T06:18:20.792Z,5.67
2019-02-02T06:20:25.179Z,6.00
2019-02-02T06:22:48.565Z,5.47
2019-02-02T06:25:04.799Z,4.53
2019-02-02T06:27:20.349Z,4.50
2019-02-02T06:29:24.781Z,5.07
2019-02-02T06:31:29.108Z,4.10
2019-02-02T06:33:35.897Z,4.60
2019-02-02T06:35:40.286Z,3.97
2019-02-02T06:37:44.656Z,3.50
2019-02-02T06:39:49.031Z,4.40
2019-02-02T06:41:53.422Z,4.20
2019-02-02T06:43:57.802Z,3.80
2019-02-02T06:46:21.210Z,3.47
2019-02-02T06:48:44.593Z,2.87
2019-02-02T06:51:08.640Z,3.27
2019-02-02T06:53:13.132Z,3.10
2019-02-02T06:55:17.451Z,2.93
2019-02-02T06:57:40.870Z,2.60
2019-02-02T06:59:45.518Z,3.17
2019-02-02T07:02:01.855Z,3.30
2019-02-02T07:04:06.296Z,2.83
2019-02-02T07:06:10.816Z,2.73
2019-02-02T07:08:15.231Z,3.83
2019-02-02T07:10:21.679Z,3.57
2019-02-02T07:12:26.091Z,3.20
2019-02-02T07:14:30.714Z,3.90
2019-02-02T07:16:35.325Z,4.30
2019-02-02T07:18:39.634Z,4.33
2019-02-02T07:20:44.023Z,3.53
2019-02-02T07:23:07.397Z,4.27
2019-02-02T07:25:30.828Z,3.57
2019-02-02T07:27:35.162Z,4.17
2019-02-02T07:29:39.802Z,4.17
2019-02-02T07:31:44.120Z,3.87
2019-02-02T07:33:48.524Z,4.53
2019-02-02T07:35:54.166Z,4.30
2019-02-02T07:40:04.843Z,3.80
2019-02-02T07:42:09.267Z,4.67
2019-02-02T07:44:13.719Z,4.77
2019-02-02T07:46:18.303Z,3.80
2019-02-02T07:48:22.690Z,4.40
2019-02-02T07:50:27.792Z,4.00
2019-02-02T07:52:32.644Z,4.43
2019-02-02T07:54:37.162Z,3.67
2019-02-02T07:56:41.517Z,4.90
2019-02-02T07:58:46.274Z,4.27
2019-02-02T08:01:09.782Z,6.30
2019-02-02T08:03:33.362Z,6.50
2019-02-02T08:05:37.824Z,4.60
2019-02-02T08:08:01.253Z,5.20
2019-02-02T08:12:19.524Z,5.03
2019-02-02T08:14:24.097Z,5.27
2019-02-02T08:16:31.431Z,5.67
2019-02-02T08:18:55.409Z,5.50
2019-02-02T08:20:59.862Z,6.77
2019-02-02T08:23:15.743Z,5.03
2019-02-02T08:25:32.277Z,5.60
2019-02-02T08:27:36.645Z,5.17
2019-02-02T08:29:40.983Z,6.10
2019-02-02T08:31:45.384Z,7.10
2019-02-02T08:33:50.474Z,6.87
2019-02-02T08:35:54.942Z,7.73
2019-02-02T08:37:59.434Z,7.40
2019-02-02T08:40:04.092Z,6.37
2019-02-02T08:42:08.464Z,7.50
2019-02-02T08:44:13.275Z,7.67
2019-02-02T08:46:17.664Z,7.50
2019-02-02T08:48:22.118Z,8.23
2019-02-02T08:50:46.404Z,9.13
2019-02-02T08:52:51.242Z,9.30
2019-02-02T08:54:55.593Z,9.77
2019-02-02T08:57:00.037Z,11.30
2019-02-02T08:59:23.495Z,10.23
2019-02-02T09:01:27.798Z,10.60
2019-02-02T09:03:32.718Z,10.80
2019-02-02T09:05:37.141Z,11.57
2019-02-02T09:07:41.780Z,11.90
2019-02-02T09:09:47.040Z,12.30
2019-02-02T09:12:10.413Z,10.93
2019-02-02T09:17:04.023Z,11.50
2019-02-02T09:19:27.460Z,12.23
2019-02-02T09:21:43.180Z,11.73
2019-02-02T09:23:59.681Z,12.40
2019-02-02T09:26:16.198Z,12.70
2019-02-02T09:28:32.628Z,15.00
2019-02-02T09:30:49.306Z,14.00
2019-02-02T09:33:05.849Z,13.93
2019-02-02T09:35:22.310Z,13.50
2019-02-02T09:37:39.769Z,13.93
2019-02-02T09:39:56.292Z,14.10
2019-02-02T09:42:12.585Z,16.40
2019-02-02T09:44:28.882Z,14.37
2019-02-02T09:46:45.388Z,15.20
2019-02-02T09:49:02.016Z,13.83
2019-02-02T09:51:18.147Z,15.27
2019-02-02T09:53:34.354Z,14.37
2019-02-02T09:55:50.123Z,14.77
2019-02-02T09:58:08.596Z,16.00
2019-02-02T10:00:29.800Z,16.37
2019-02-02T10:02:46.166Z,16.07
2019-02-02T10:05:02.555Z,16.40
2019-02-02T10:07:18.979Z,19.00
2019-02-02T10:09:34.631Z,19.40
2019-02-02T10:11:51.231Z,16.83
2019-02-02T10:14:06.943Z,17.43
2019-02-02T10:16:23.521Z,21.57
2019-02-02T10:18:39.228Z,15.53
2019-02-02T10:21:03.770Z,17.80
2019-02-02T10:23:33.909Z,16.60
2019-02-02T10:25:39.428Z,18.80
2019-02-02T10:28:15.877Z,17.10
2019-02-02T10:30:32.262Z,17.90
2019-02-02T10:32:53.201Z,21.00
2019-02-02T10:35:09.970Z,22.10
2019-02-02T10:37:26.221Z,23.77
2019-02-02T10:39:42.205Z,22.20
2019-02-02T10:41:58.513Z,17.13
2019-02-02T10:44:14.814Z,17.67
2019-02-02T10:46:31.199Z,22.77
2019-02-02T10:48:47.683Z,22.03
2019-02-02T10:51:04.273Z,23.37
2019-02-02T10:53:08.826Z,20.07
2019-02-02T10:55:34.995Z,20.93
2019-02-02T10:57:51.116Z,21.03
2019-02-02T11:00:07.612Z,19.00
2019-02-02T11:02:23.322Z,22.30
2019-02-02T11:04:39.232Z,23.67
2019-02-02T11:06:55.681Z,23.60
2019-02-02T11:09:11.940Z,25.53
2019-02-02T11:11:28.482Z,24.37
2019-02-02T11:13:45.202Z,23.57
2019-02-02T11:16:00.934Z,26.37
2019-02-02T11:18:16.499Z,18.93
2019-02-02T11:20:32.645Z,23.27
2019-02-02T11:22:48.911Z,24.93
2019-02-02T11:25:05.314Z,23.17
2019-02-02T11:27:21.623Z,22.23
2019-02-02T11:29:37.398Z,24.10
2019-02-02T11:32:02.613Z,23.87
2019-02-02T11:34:11.703Z,23.70
2019-02-02T11:36:28.205Z,26.37
2019-02-02T11:38:44.009Z,22.47
2019-02-02T11:40:59.789Z,24.37
2019-02-02T11:43:16.371Z,25.20
2019-02-02T11:45:32.694Z,25.77
2019-02-02T11:47:49.324Z,25.97
2019-02-02T11:50:05.788Z,24.10
2019-02-02T11:52:23.355Z,27.57
2019-02-02T11:54:40.061Z,26.80
2019-02-02T11:56:55.729Z,27.30
2019-02-02T11:59:02.788Z,24.97
2019-02-02T12:01:07.222Z,27.20
2019-02-02T12:03:30.701Z,25.70
2019-02-02T12:05:46.233Z,24.27
2019-02-02T12:08:03.649Z,20.57
2019-02-02T12:10:21.787Z,25.27
2019-02-02T12:12:37.194Z,18.20
2019-02-02T12:14:53.621Z,23.20
2019-02-02T12:17:10.197Z,19.00
2019-02-02T12:19:25.990Z,24.47
2019-02-02T12:21:42.563Z,25.80
2019-02-02T12:23:58.286Z,23.37
2019-02-02T12:26:14.131Z,24.17
2019-02-02T12:28:30.261Z,28.87
2019-02-02T12:30:35.796Z,24.97
2019-02-02T12:32:40.336Z,22.13
2019-02-02T12:34:45.074Z,22.17
2019-02-02T12:37:08.664Z,25.27
2019-02-02T12:39:24.627Z,22.90
2019-02-02T12:41:40.446Z,25.70
2019-02-02T12:43:56.878Z,22.93
2019-02-02T12:46:13.452Z,26.90
2019-02-02T12:48:32.237Z,23.80
2019-02-02T12:50:47.335Z,23.97
2019-02-02T12:53:03.131Z,27.10
2019-02-02T12:55:07.916Z,19.77
2019-02-02T12:57:31.318Z,25.13
2019-02-02T12:59:37.974Z,24.13
2019-02-02T13:02:01.894Z,24.57
2019-02-02T13:04:17.413Z,24.30
2019-02-02T13:06:33.810Z,24.37
2019-02-02T13:08:49.817Z,26.70
2019-02-02T13:11:06.362Z,22.97
2019-02-02T13:13:22.288Z,22.90
2019-02-02T13:15:39.464Z,25.67
2019-02-02T13:17:45.723Z,26.77
2019-02-02T13:20:09.915Z,24.83
2019-02-02T13:22:26.226Z,22.73
2019-02-02T13:24:35.658Z,25.80
2019-02-02T13:26:40.191Z,23.80
2019-02-02T13:29:04.035Z,19.77
2019-02-02T13:31:08.750Z,20.10
2019-02-02T13:33:13.151Z,20.87
2019-02-02T13:35:38.121Z,27.60
2019-02-02T13:37:54.610Z,14.67
2019-02-02T13:39:59.074Z,21.00
2019-02-02T13:42:22.501Z,23.50
2019-02-02T13:47:21.450Z,23.80
2019-02-02T13:49:38.056Z,24.70
2019-02-02T13:51:54.316Z,19.90
2019-02-02T13:54:10.411Z,21.27
2019-02-02T13:56:26.947Z,24.60
2019-02-02T13:58:42.755Z,22.60
2019-02-02T14:00:58.575Z,25.33
2019-02-02T14:03:15.002Z,23.30
2019-02-02T14:05:31.509Z,12.77
2019-02-02T14:07:47.036Z,23.87
2019-02-02T14:10:03.701Z,24.00
2019-02-02T14:12:19.304Z,28.57
2019-02-02T14:14:35.795Z,20.60
2019-02-02T14:16:52.459Z,25.00
2019-02-02T14:19:09.073Z,25.47
2019-02-02T14:21:25.422Z,25.80
2019-02-02T14:23:41.438Z,22.43
2019-02-02T14:26:00.267Z,28.60
2019-02-02T14:28:27.573Z,20.73
2019-02-02T14:30:35.068Z,24.37
2019-02-02T14:32:54.287Z,26.80
2019-02-02T14:35:09.486Z,21.80
2019-02-02T14:37:26.077Z,23.43
2019-02-02T14:39:42.449Z,25.00
2019-02-02T14:41:58.830Z,24.60
2019-02-02T14:44:15.146Z,25.77
2019-02-02T14:46:32.054Z,23.70
2019-02-02T14:48:47.978Z,24.33
2019-02-02T14:51:04.404Z,29.63
2019-02-02T14:53:09.089Z,29.13
2019-02-02T14:55:32.850Z,28.87
2019-02-02T14:57:50.395Z,29.30
2019-02-02T15:00:06.627Z,28.37
2019-02-02T15:02:23.046Z,29.60
2019-02-02T15:04:38.856Z,23.27
2019-02-02T15:06:43.231Z,28.23
2019-02-02T15:09:07.282Z,26.70
2019-02-02T15:11:23.802Z,30.57
2019-02-02T15:13:40.833Z,30.80
2019-02-02T15:15:57.220Z,30.70
2019-02-02T15:18:13.517Z,28.30
2019-02-02T15:20:29.815Z,28.20
2019-02-02T15:22:34.557Z,29.80
2019-02-02T15:24:58.088Z,30.63
2019-02-02T15:27:21.580Z,26.40
2019-02-02T15:29:45.646Z,27.50
2019-02-02T15:32:09.399Z,28.87
2019-02-02T15:34:25.031Z,29.07
2019-02-02T15:36:41.396Z,31.03
2019-02-02T15:38:45.901Z,27.57
2019-02-02T15:41:09.333Z,26.47
2019-02-02T15:43:25.483Z,27.40
2019-02-02T15:45:41.289Z,27.40
2019-02-02T15:47:57.469Z,30.47
2019-02-02T15:50:13.817Z,26.07
2019-02-02T15:52:30.383Z,31.57
2019-02-02T15:54:47.161Z,26.27
2019-02-02T15:57:06.190Z,28.30
2019-02-02T15:59:22.190Z,25.50
2019-02-02T16:01:26.819Z,27.17
2019-02-02T16:03:51.115Z,31.63
2019-02-02T16:06:13.934Z,26.80
2019-02-02T16:08:30.671Z,19.40
2019-02-02T16:10:47.144Z,28.10
2019-02-02T16:13:03.951Z,30.50
2019-02-02T16:15:20.251Z,26.87
2019-02-02T16:17:25.229Z,24.37
2019-02-02T16:19:49.092Z,26.10
2019-02-02T16:22:13.137Z,19.93
2019-02-02T16:27:06.069Z,27.90
2019-02-02T16:29:30.371Z,24.37
2019-02-02T16:31:53.901Z,28.07
2019-02-02T16:34:17.590Z,26.83
2019-02-02T16:36:41.987Z,23.90
2019-02-02T16:38:48.301Z,28.20
2019-02-02T16:41:11.900Z,22.27
2019-02-02T16:43:28.074Z,22.73
2019-02-02T16:45:44.378Z,24.00
2019-02-02T16:48:01.229Z,28.30
2019-02-02T16:50:16.999Z,25.33
2019-02-02T16:52:32.573Z,28.80
2019-02-02T16:54:37.111Z,28.50
2019-02-02T16:57:08.124Z,25.90
2019-02-02T16:59:24.149Z,24.47
2019-02-02T17:01:40.370Z,31.07
2019-02-02T17:03:56.019Z,28.90
2019-02-02T17:06:12.207Z,21.27
2019-02-02T17:08:27.838Z,24.77
2019-02-02T17:10:44.320Z,26.17
2019-02-02T17:13:00.941Z,29.37
2019-02-02T17:15:17.342Z,24.70
2019-02-02T17:17:33.326Z,28.07
2019-02-02T17:19:38.089Z,30.17
2019-02-02T17:24:30.411Z,30.37
2019-02-02T17:26:54.370Z,22.07
2019-02-02T17:29:10.641Z,26.83
2019-02-02T17:31:27.197Z,28.47
2019-02-02T17:33:43.690Z,29.60
2019-02-02T17:35:59.937Z,28.60
2019-02-02T17:38:15.852Z,26.87
2019-02-02T17:40:31.584Z,26.53
2019-02-02T17:42:47.519Z,27.77
2019-02-02T17:44:52.212Z,30.23
2019-02-02T17:47:15.756Z,30.87
2019-02-02T17:49:39.568Z,33.97
2019-02-02T17:51:55.811Z,27.03
2019-02-02T17:54:12.120Z,24.50
2019-02-02T17:56:28.800Z,26.80
2019-02-02T17:58:45.172Z,27.83
2019-02-02T18:01:02.146Z,28.50
2019-02-02T18:03:18.709Z,27.70
2019-02-02T18:05:34.987Z,24.20
2019-02-02T18:07:51.590Z,29.97
2019-02-02T18:10:08.110Z,30.70
2019-02-02T18:12:24.439Z,26.30
2019-02-02T18:14:40.773Z,26.30
2019-02-02T18:16:57.269Z,22.90
2019-02-02T18:19:13.508Z,30.33
2019-02-02T18:21:29.234Z,27.90
2019-02-02T18:23:45.751Z,28.10
2019-02-02T18:26:01.823Z,26.97
2019-02-02T18:28:18.256Z,29.77
2019-02-02T18:30:35.049Z,32.80
2019-02-02T18:32:51.212Z,28.07
2019-02-02T18:35:08.528Z,27.20
2019-02-02T18:37:24.483Z,25.17
2019-02-02T18:39:40.635Z,26.77
2019-02-02T18:41:56.800Z,26.57
2019-02-02T18:44:13.356Z,27.90
2019-02-02T18:46:33.292Z,27.70
2019-02-02T18:48:52.018Z,28.77
2019-02-02T18:51:10.346Z,29.33
2019-02-02T18:53:27.356Z,28.10
2019-02-02T18:55:43.943Z,26.30
2019-02-02T18:58:01.676Z,27.90
2019-02-02T19:00:17.971Z,26.83
2019-02-02T19:02:34.084Z,30.20
2019-02-02T19:04:50.466Z,28.57
2019-02-02T19:07:06.295Z,29.37
2019-02-02T19:09:22.905Z,30.10
2019-02-02T19:11:28.638Z,29.03
2019-02-02T19:13:52.059Z,29.80
2019-02-02T19:16:15.581Z,26.03
2019-02-02T19:18:39.045Z,27.30
2019-02-02T19:21:02.453Z,33.50
2019-02-02T19:26:08.721Z,28.37
2019-02-02T19:28:26.489Z,31.97
2019-02-02T19:30:41.822Z,30.67
2019-02-02T19:32:58.228Z,35.93
2019-02-02T19:35:16.296Z,30.73
2019-02-02T19:37:31.743Z,31.87
2019-02-02T19:39:48.270Z,34.90
2019-02-02T19:42:04.594Z,34.00
2019-02-02T19:44:22.393Z,23.03
2019-02-02T19:46:38.826Z,27.73
2019-02-02T19:48:55.543Z,31.20
2019-02-02T19:51:12.118Z,30.60
2019-02-02T19:53:28.323Z,24.20
2019-02-02T19:55:44.744Z,26.50
2019-02-02T19:58:01.147Z,27.73
2019-02-02T20:00:17.356Z,35.83
2019-02-02T20:02:33.412Z,31.37
2019-02-02T20:04:49.602Z,28.03
2019-02-02T20:07:05.963Z,35.07
2019-02-02T20:09:22.376Z,28.90
2019-02-02T20:11:41.681Z,27.07
2019-02-02T20:13:57.849Z,32.67
2019-02-02T20:16:14.403Z,20.70
2019-02-02T20:18:30.806Z,30.40
2019-02-02T20:20:47.855Z,24.47
2019-02-02T20:23:04.569Z,30.87
2019-02-02T20:25:20.618Z,32.20
2019-02-02T20:27:37.275Z,27.83
2019-02-02T20:29:53.835Z,29.00
2019-02-02T20:32:10.418Z,22.37
2019-02-02T20:34:27.417Z,28.17
2019-02-02T20:36:46.818Z,27.00
2019-02-02T20:39:04.540Z,28.80
2019-02-02T20:41:21.138Z,26.67
2019-02-02T20:43:37.131Z,25.97
2019-02-02T20:45:53.770Z,19.83
2019-02-02T20:48:10.064Z,26.53
2019-02-02T20:50:26.457Z,27.67
2019-02-02T20:52:47.755Z,24.30
2019-02-02T20:55:01.921Z,24.20
2019-02-02T20:57:18.426Z,22.17
2019-02-02T20:59:34.655Z,31.07
2019-02-02T21:01:50.981Z,26.37
2019-02-02T21:04:06.720Z,23.73
2019-02-02T21:06:11.471Z,23.70
2019-02-02T21:08:34.970Z,16.37
2019-02-02T21:10:58.864Z,24.97
2019-02-02T21:13:15.333Z,22.67
2019-02-02T21:15:19.911Z,23.70
2019-02-02T21:17:43.676Z,21.07
2019-02-02T21:19:59.859Z,16.87
2019-02-02T21:22:17.114Z,19.50
2019-02-02T21:24:33.544Z,15.47
2019-02-02T21:27:02.898Z,15.13
2019-02-02T21:29:21.125Z,24.43
2019-02-02T21:31:41.406Z,22.17
2019-02-02T21:33:59.270Z,20.70
2019-02-02T21:36:17.843Z,18.90
2019-02-02T21:38:36.796Z,21.60
2019-02-02T21:40:56.226Z,24.37
2019-02-02T21:43:12.756Z,19.80
2019-02-02T21:45:29.087Z,20.90
2019-02-02T21:47:45.516Z,18.77
2019-02-02T21:50:01.769Z,20.80
2019-02-02T21:52:18.112Z,22.93
2019-02-02T21:54:34.519Z,21.90
2019-02-02T21:56:50.784Z,22.90
2019-02-02T21:59:07.546Z,23.07
2019-02-02T22:01:24.482Z,19.33
2019-02-02T22:03:41.004Z,24.57
2019-02-02T22:05:45.496Z,18.60
2019-02-02T22:08:02.105Z,22.03
2019-02-02T22:10:18.612Z,22.47
2019-02-02T22:12:43.490Z,18.70
2019-02-02T22:17:00.880Z,24.00
2019-02-02T22:19:19.463Z,19.70
2019-02-02T22:21:35.142Z,15.97
2019-02-02T22:23:39.608Z,21.97
2019-02-02T22:26:03.140Z,24.33
2019-02-02T22:28:19.011Z,20.93
2019-02-02T22:30:34.793Z,23.43
2019-02-02T22:32:50.816Z,21.10
2019-02-02T22:35:08.588Z,22.67
2019-02-02T22:37:24.732Z,19.70
2019-02-02T22:39:41.218Z,23.80
2019-02-02T22:41:57.486Z,14.00
2019-02-02T22:44:13.998Z,27.30
2019-02-02T22:46:29.585Z,24.37
2019-02-02T22:48:45.977Z,23.70
2019-02-02T22:51:02.374Z,29.20
2019-02-02T22:53:18.717Z,25.40
2019-02-02T22:55:35.131Z,27.57
2019-02-02T22:57:50.867Z,26.07
2019-02-02T23:00:07.319Z,28.13
2019-02-02T23:02:23.477Z,25.87
2019-02-02T23:04:39.930Z,26.07
2019-02-02T23:06:56.359Z,26.57
2019-02-02T23:09:15.158Z,26.87
2019-02-02T23:11:32.710Z,25.40
2019-02-02T23:14:11.827Z,21.67
2019-02-02T23:16:20.619Z,34.10
2019-02-02T23:18:36.759Z,22.80
2019-02-02T23:20:53.363Z,36.80
2019-02-02T23:23:09.984Z,26.97
2019-02-02T23:25:26.150Z,36.30
2019-02-02T23:27:42.100Z,33.07
2019-02-02T23:29:58.657Z,30.90
2019-02-02T23:32:15.973Z,33.73
2019-02-02T23:34:32.549Z,29.53
2019-02-02T23:36:51.969Z,33.67
2019-02-02T23:39:05.854Z,26.77
2019-02-02T23:41:22.098Z,29.77
2019-02-02T23:43:37.612Z,28.27
2019-02-02T23:45:53.845Z,19.10
2019-02-02T23:48:10.213Z,26.50
2019-02-02T23:50:26.695Z,31.43
2019-02-02T23:52:42.942Z,23.33
2019-02-02T23:54:59.167Z,24.00
2019-02-02T23:57:15.732Z,25.67
2019-02-02T23:59:34.851Z,28.70
